createdAt,value
2018-10-03T00:02:20.890Z,12.27
2018-10-03T00:04:49.313Z,12.27
2018-10-03T00:07:18.268Z,12.29
2018-10-03T00:09:46.698Z,12.29
2018-10-03T00:12:15.250Z,12.33
2018-10-03T00:14:43.753Z,12.37
2018-10-03T00:17:12.249Z,12.39
2018-10-03T00:19:40.736Z,12.36
2018-10-03T00:22:09.222Z,12.33
2018-10-03T00:24:37.631Z,12.35
2018-10-03T00:27:06.637Z,12.33
2018-10-03T00:29:35.161Z,12.30
2018-10-03T00:32:03.730Z,12.27
2018-10-03T00:34:32.133Z,12.28
2018-10-03T00:37:00.630Z,12.27
2018-10-03T00:39:29.078Z,12.30
2018-10-03T00:41:57.742Z,12.28
2018-10-03T00:44:26.206Z,12.27
2018-10-03T00:46:54.648Z,12.27
2018-10-03T00:49:23.115Z,12.32
2018-10-03T00:51:51.613Z,12.25
2018-10-03T00:54:20.237Z,12.25
2018-10-03T00:56:48.663Z,12.20
2018-10-03T00:59:17.354Z,12.19
2018-10-03T01:01:45.831Z,12.14
2018-10-03T01:04:14.321Z,12.13
2018-10-03T01:06:42.786Z,12.20
2018-10-03T01:09:11.314Z,12.22
2018-10-03T01:11:39.750Z,12.26
2018-10-03T01:14:08.241Z,12.30
2018-10-03T01:16:36.734Z,12.29
2018-10-03T01:19:05.444Z,12.31
2018-10-03T01:21:33.899Z,12.29
2018-10-03T01:24:02.386Z,12.30
2018-10-03T01:26:31.018Z,12.30
2018-10-03T01:28:59.566Z,12.28
2018-10-03T01:31:28.194Z,12.28
2018-10-03T01:33:56.822Z,12.29
2018-10-03T01:36:25.271Z,12.24
2018-10-03T01:38:53.795Z,12.17
2018-10-03T01:41:22.242Z,12.12
2018-10-03T01:43:50.736Z,12.13
2018-10-03T01:46:19.270Z,12.13
2018-10-03T01:48:47.712Z,12.15
2018-10-03T01:51:16.478Z,12.26
2018-10-03T01:53:45.136Z,12.34
2018-10-03T01:56:13.753Z,12.29
2018-10-03T01:58:42.314Z,12.24
2018-10-03T02:01:10.817Z,12.17
2018-10-03T02:03:39.325Z,12.23
2018-10-03T02:06:07.789Z,12.23
2018-10-03T02:08:36.285Z,12.21
2018-10-03T02:11:04.982Z,12.18
2018-10-03T02:13:33.409Z,12.13
2018-10-03T02:16:01.853Z,12.14
2018-10-03T02:18:30.302Z,12.14
2018-10-03T02:20:59.021Z,12.16
2018-10-03T02:23:27.658Z,12.15
2018-10-03T02:25:56.415Z,12.14
2018-10-03T02:28:24.954Z,12.10
2018-10-03T02:30:53.404Z,12.14
2018-10-03T02:33:21.878Z,12.15
2018-10-03T02:35:50.445Z,12.14
2018-10-03T02:38:19.270Z,12.14
2018-10-03T02:40:47.945Z,12.12
2018-10-03T02:43:16.491Z,12.12
2018-10-03T02:45:45.062Z,12.14
2018-10-03T02:48:13.501Z,12.16
2018-10-03T02:50:42.008Z,12.16
2018-10-03T02:53:10.421Z,12.15
2018-10-03T02:55:38.855Z,12.08
2018-10-03T02:58:07.330Z,12.12
2018-10-03T03:00:35.832Z,12.05
2018-10-03T03:03:04.442Z,12.03
2018-10-03T03:05:32.910Z,12.00
2018-10-03T03:08:01.372Z,11.83
2018-10-03T03:10:29.946Z,11.62
2018-10-03T03:12:58.665Z,11.36
2018-10-03T03:15:27.201Z,11.18
2018-10-03T03:17:55.736Z,11.04
2018-10-03T03:20:24.189Z,10.97
2018-10-03T03:22:52.649Z,10.89
2018-10-03T03:25:21.220Z,10.90
2018-10-03T03:27:49.729Z,10.88
2018-10-03T03:30:18.454Z,10.87
2018-10-03T03:32:46.994Z,10.87
2018-10-03T03:35:15.508Z,10.86
2018-10-03T03:37:43.990Z,10.93
2018-10-03T03:40:12.453Z,10.95
2018-10-03T03:42:40.907Z,11.01
2018-10-03T03:45:09.452Z,11.04
2018-10-03T03:47:37.877Z,11.12
2018-10-03T03:50:06.522Z,11.08
2018-10-03T03:52:34.947Z,11.14
2018-10-03T03:55:03.509Z,11.18
2018-10-03T03:57:31.983Z,11.18
2018-10-03T04:00:00.678Z,11.17
2018-10-03T04:02:29.177Z,11.16
2018-10-03T04:04:57.713Z,11.13
2018-10-03T04:07:26.219Z,11.11
2018-10-03T04:09:54.719Z,11.05
2018-10-03T04:12:23.237Z,10.95
2018-10-03T04:14:51.659Z,10.90
2018-10-03T04:17:20.456Z,10.90
2018-10-03T04:19:49.199Z,10.87
2018-10-03T04:22:17.936Z,10.84
2018-10-03T04:24:46.435Z,10.86
2018-10-03T04:27:14.981Z,10.83
2018-10-03T04:29:43.385Z,10.86
2018-10-03T04:32:11.906Z,10.85
2018-10-03T04:34:40.366Z,10.86
2018-10-03T04:37:08.854Z,10.87
2018-10-03T04:39:37.330Z,10.89
2018-10-03T04:42:06.178Z,10.91
2018-10-03T04:44:34.694Z,10.92
2018-10-03T04:47:03.262Z,10.94
2018-10-03T04:49:31.878Z,10.89
2018-10-03T04:52:00.427Z,10.86
2018-10-03T04:54:28.912Z,10.88
2018-10-03T04:56:57.598Z,10.88
2018-10-03T04:59:26.221Z,10.90
2018-10-03T05:01:54.709Z,10.89
2018-10-03T05:04:23.174Z,10.87
2018-10-03T05:06:51.666Z,10.90
2018-10-03T05:09:20.329Z,10.89
2018-10-03T05:11:49.052Z,10.90
2018-10-03T05:14:17.961Z,10.90
2018-10-03T05:16:46.439Z,10.90
2018-10-03T05:19:14.888Z,10.89
2018-10-03T05:21:43.476Z,10.92
2018-10-03T05:24:11.950Z,10.93
2018-10-03T05:26:40.367Z,10.91
2018-10-03T05:29:08.818Z,10.87
2018-10-03T05:31:37.229Z,10.80
2018-10-03T05:34:05.941Z,10.78
2018-10-03T05:36:34.453Z,10.79
2018-10-03T05:39:02.989Z,10.79
2018-10-03T05:41:31.471Z,10.82
2018-10-03T05:44:00.039Z,10.89
2018-10-03T05:46:28.486Z,10.90
2018-10-03T05:48:57.111Z,10.95
2018-10-03T05:51:25.768Z,11.01
2018-10-03T05:53:54.202Z,11.06
2018-10-03T05:56:22.618Z,11.06
2018-10-03T05:58:51.157Z,11.08
2018-10-03T06:01:19.770Z,11.09
2018-10-03T06:03:48.305Z,11.13
2018-10-03T06:06:16.832Z,11.14
2018-10-03T06:08:45.333Z,11.18
2018-10-03T06:11:13.803Z,11.20
2018-10-03T06:13:42.302Z,11.22
2018-10-03T06:16:10.816Z,11.24
2018-10-03T06:18:39.315Z,11.28
2018-10-03T06:21:07.823Z,11.34
2018-10-03T06:23:36.346Z,11.39
2018-10-03T06:26:04.960Z,11.41
2018-10-03T06:28:33.405Z,11.45
2018-10-03T06:31:01.894Z,11.54
2018-10-03T06:33:30.375Z,11.62
2018-10-03T06:35:58.958Z,11.74
2018-10-03T06:38:27.833Z,11.82
2018-10-03T06:40:56.321Z,11.94
2018-10-03T06:43:24.903Z,12.02
2018-10-03T06:45:53.394Z,12.02
2018-10-03T06:48:22.045Z,12.04
2018-10-03T06:50:50.525Z,12.05
2018-10-03T06:53:19.043Z,12.05
2018-10-03T06:55:47.510Z,12.18
2018-10-03T06:58:16.129Z,12.24
2018-10-03T07:00:44.589Z,12.23
2018-10-03T07:03:13.086Z,12.36
2018-10-03T07:05:41.536Z,12.44
2018-10-03T07:08:09.998Z,12.46
2018-10-03T07:10:38.505Z,12.54
2018-10-03T07:13:07.006Z,12.56
2018-10-03T07:15:35.524Z,12.58
2018-10-03T07:18:04.202Z,12.61
2018-10-03T07:20:32.775Z,12.60
2018-10-03T07:23:01.261Z,12.69
2018-10-03T07:25:29.826Z,12.83
2018-10-03T07:27:58.373Z,12.91
2018-10-03T07:30:26.905Z,12.97
2018-10-03T07:32:55.424Z,13.06
2018-10-03T07:35:23.921Z,13.12
2018-10-03T07:37:52.438Z,13.20
2018-10-03T07:40:20.902Z,13.19
2018-10-03T07:42:49.353Z,13.15
2018-10-03T07:45:18.242Z,13.26
2018-10-03T07:47:46.738Z,13.29
2018-10-03T07:50:15.262Z,13.24
2018-10-03T07:52:43.702Z,13.14
2018-10-03T07:55:12.224Z,13.04
2018-10-03T07:57:40.645Z,12.95
2018-10-03T08:00:09.474Z,12.85
2018-10-03T08:02:38.098Z,12.79
2018-10-03T08:05:07.113Z,12.87
2018-10-03T08:07:35.511Z,12.99
2018-10-03T08:10:04.218Z,13.22
2018-10-03T08:12:32.677Z,13.33
2018-10-03T08:15:01.175Z,13.47
2018-10-03T08:17:29.918Z,13.63
2018-10-03T08:19:58.602Z,13.75
2018-10-03T08:22:27.151Z,13.89
2018-10-03T08:24:55.614Z,13.98
2018-10-03T08:27:24.102Z,13.93
2018-10-03T08:29:52.586Z,13.96
2018-10-03T08:32:21.163Z,14.09
2018-10-03T08:34:49.649Z,14.19
2018-10-03T08:37:18.221Z,14.21
2018-10-03T08:39:46.706Z,14.16
2018-10-03T08:42:15.349Z,14.12
2018-10-03T08:44:43.910Z,14.01
2018-10-03T08:47:12.397Z,14.01
2018-10-03T08:49:40.835Z,14.12
2018-10-03T08:52:09.274Z,14.17
2018-10-03T08:54:37.682Z,14.21
2018-10-03T08:57:07.236Z,14.48
2018-10-03T08:59:35.682Z,14.59
2018-10-03T09:02:04.425Z,14.84
2018-10-03T09:04:33.193Z,14.97
2018-10-03T09:07:01.766Z,15.19
2018-10-03T09:09:30.197Z,15.05
2018-10-03T09:11:58.887Z,14.91
2018-10-03T09:14:27.747Z,14.83
2018-10-03T09:16:56.342Z,14.71
2018-10-03T09:19:25.229Z,14.48
2018-10-03T09:21:53.816Z,14.52
2018-10-03T09:24:22.350Z,14.63
2018-10-03T09:26:50.865Z,14.91
2018-10-03T09:29:19.566Z,15.10
2018-10-03T09:31:48.418Z,15.33
2018-10-03T09:34:17.813Z,15.74
2018-10-03T09:36:46.303Z,16.00
2018-10-03T09:39:14.750Z,16.30
2018-10-03T09:41:43.292Z,16.17
2018-10-03T09:44:12.191Z,15.88
2018-10-03T09:46:41.386Z,15.58
2018-10-03T09:49:09.905Z,15.13
2018-10-03T09:51:38.446Z,14.85
2018-10-03T09:54:07.053Z,14.86
2018-10-03T09:56:36.058Z,14.73
2018-10-03T09:59:04.833Z,14.53
2018-10-03T10:01:34.256Z,14.50
2018-10-03T10:04:04.532Z,14.43
2018-10-03T10:06:34.091Z,14.41
2018-10-03T10:09:03.891Z,14.43
2018-10-03T10:11:32.582Z,14.44
2018-10-03T10:14:00.878Z,14.40
2018-10-03T10:16:29.350Z,14.34
2018-10-03T10:18:57.932Z,14.40
2018-10-03T10:21:26.519Z,14.52
2018-10-03T10:23:55.017Z,14.66
2018-10-03T10:26:23.629Z,14.86
2018-10-03T10:28:52.110Z,14.99
2018-10-03T10:31:20.698Z,15.06
2018-10-03T10:33:49.218Z,15.32
2018-10-03T10:36:17.897Z,15.44
2018-10-03T10:38:46.440Z,15.45
2018-10-03T10:41:15.072Z,15.70
2018-10-03T10:43:43.507Z,15.74
2018-10-03T10:46:12.054Z,15.87
2018-10-03T10:48:40.571Z,16.06
2018-10-03T10:51:09.069Z,16.44
2018-10-03T10:53:37.561Z,16.57
2018-10-03T10:56:06.253Z,16.88
2018-10-03T10:58:35.067Z,17.31
2018-10-03T11:01:03.624Z,17.71
2018-10-03T11:03:32.369Z,17.93
2018-10-03T11:06:00.841Z,18.75
2018-10-03T11:08:29.374Z,19.57
2018-10-03T11:10:57.969Z,22.04
2018-10-03T11:13:26.553Z,23.96
2018-10-03T11:15:55.268Z,24.77
2018-10-03T11:18:23.729Z,25.32
2018-10-03T11:20:52.216Z,24.70
2018-10-03T11:23:20.831Z,23.36
2018-10-03T11:25:49.362Z,22.00
2018-10-03T11:28:18.084Z,21.11
2018-10-03T11:30:46.590Z,20.41
2018-10-03T11:33:15.581Z,20.25
2018-10-03T11:35:44.162Z,20.09
2018-10-03T11:38:12.735Z,19.57
2018-10-03T11:40:41.208Z,19.42
2018-10-03T11:43:09.677Z,19.31
2018-10-03T11:45:38.138Z,19.11
2018-10-03T11:48:06.775Z,19.57
2018-10-03T11:50:35.380Z,19.56
2018-10-03T11:53:04.021Z,19.46
2018-10-03T11:55:32.507Z,19.44
2018-10-03T11:58:01.010Z,19.77
2018-10-03T12:00:29.591Z,19.66
2018-10-03T12:02:58.279Z,19.74
2018-10-03T12:05:26.670Z,19.87
2018-10-03T12:07:56.141Z,19.87
2018-10-03T12:10:24.625Z,20.25
2018-10-03T12:12:53.103Z,20.14
2018-10-03T12:15:21.557Z,19.91
2018-10-03T12:17:50.065Z,19.95
2018-10-03T12:20:18.637Z,20.01
2018-10-03T12:22:47.165Z,19.91
2018-10-03T12:25:15.875Z,19.99
2018-10-03T12:27:44.428Z,20.21
2018-10-03T12:30:13.035Z,20.11
2018-10-03T12:32:41.523Z,20.60
2018-10-03T12:35:10.058Z,20.76
2018-10-03T12:37:38.479Z,20.95
2018-10-03T12:40:07.029Z,21.05
2018-10-03T12:42:35.547Z,20.99
2018-10-03T12:45:04.185Z,20.79
2018-10-03T12:47:32.613Z,20.68
2018-10-03T12:50:01.107Z,21.18
2018-10-03T12:52:29.573Z,21.17
2018-10-03T12:54:58.129Z,22.00
2018-10-03T12:57:26.685Z,22.41
2018-10-03T12:59:55.171Z,22.29
2018-10-03T13:02:23.626Z,22.14
2018-10-03T13:04:52.104Z,21.59
2018-10-03T13:07:20.734Z,21.63
2018-10-03T13:09:49.200Z,21.88
2018-10-03T13:12:17.718Z,21.85
2018-10-03T13:14:46.290Z,22.17
2018-10-03T13:17:14.788Z,22.81
2018-10-03T13:19:43.536Z,23.88
2018-10-03T13:22:12.015Z,23.96
2018-10-03T13:24:40.443Z,24.76
2018-10-03T13:27:08.945Z,25.04
2018-10-03T13:29:37.578Z,25.49
2018-10-03T13:32:06.370Z,25.49
2018-10-03T13:34:34.782Z,26.99
2018-10-03T13:37:03.523Z,26.98
2018-10-03T13:39:32.077Z,26.99
2018-10-03T13:42:00.758Z,26.95
2018-10-03T13:44:29.326Z,27.28
2018-10-03T13:46:57.906Z,27.36
2018-10-03T13:49:26.550Z,28.27
2018-10-03T13:51:55.037Z,27.70
2018-10-03T13:54:23.504Z,27.92
2018-10-03T13:56:51.987Z,28.65
2018-10-03T13:59:20.690Z,30.26
2018-10-03T14:01:49.286Z,32.66
2018-10-03T14:04:18.060Z,33.17
2018-10-03T14:06:46.621Z,31.45
2018-10-03T14:09:15.071Z,30.54
2018-10-03T14:11:43.707Z,28.90
2018-10-03T14:14:12.137Z,28.62
2018-10-03T14:16:40.590Z,27.04
2018-10-03T14:19:09.159Z,26.36
2018-10-03T14:21:37.731Z,26.41
2018-10-03T14:24:06.270Z,26.69
2018-10-03T14:26:34.769Z,26.28
2018-10-03T14:29:03.236Z,25.32
2018-10-03T14:31:31.733Z,24.71
2018-10-03T14:34:00.225Z,24.04
2018-10-03T14:36:28.734Z,23.86
2018-10-03T14:38:57.330Z,23.96
2018-10-03T14:41:25.898Z,24.31
2018-10-03T14:43:54.475Z,27.08
2018-10-03T14:46:23.112Z,30.04
2018-10-03T14:48:51.642Z,31.43
2018-10-03T14:51:20.162Z,31.02
2018-10-03T14:53:48.808Z,28.66
2018-10-03T14:56:17.379Z,26.59
2018-10-03T14:58:46.003Z,24.78
2018-10-03T15:01:14.541Z,23.85
2018-10-03T15:03:43.066Z,23.42
2018-10-03T15:06:11.659Z,22.39
2018-10-03T15:08:40.175Z,21.82
2018-10-03T15:11:08.701Z,21.20
2018-10-03T15:13:37.138Z,21.06
2018-10-03T15:16:05.670Z,21.11
2018-10-03T15:18:34.190Z,20.98
2018-10-03T15:21:02.706Z,20.64
2018-10-03T15:23:31.202Z,20.29
2018-10-03T15:25:59.813Z,20.00
2018-10-03T15:28:28.286Z,20.06
2018-10-03T15:30:56.980Z,19.91
2018-10-03T15:33:25.550Z,19.69
2018-10-03T15:35:54.115Z,19.75
2018-10-03T15:38:22.559Z,19.76
2018-10-03T15:40:51.008Z,20.76
2018-10-03T15:43:19.653Z,24.64
2018-10-03T15:45:48.130Z,27.25
2018-10-03T15:48:16.596Z,28.04
2018-10-03T15:50:45.134Z,29.08
2018-10-03T15:53:13.661Z,28.06
2018-10-03T15:55:42.165Z,25.58
2018-10-03T15:58:10.600Z,23.86
2018-10-03T16:00:39.103Z,22.51
2018-10-03T16:03:07.643Z,21.51
2018-10-03T16:05:36.186Z,20.78
2018-10-03T16:08:04.865Z,20.40
2018-10-03T16:10:33.357Z,19.96
2018-10-03T16:13:01.816Z,19.65
2018-10-03T16:15:30.281Z,19.35
2018-10-03T16:17:58.863Z,19.11
2018-10-03T16:20:27.496Z,18.89
2018-10-03T16:22:55.950Z,18.59
2018-10-03T16:25:24.513Z,18.37
2018-10-03T16:27:53.030Z,18.22
2018-10-03T16:30:21.618Z,18.10
2018-10-03T16:32:50.165Z,17.95
2018-10-03T16:35:18.769Z,17.88
2018-10-03T16:37:47.262Z,17.75
2018-10-03T16:40:15.867Z,17.60
2018-10-03T16:42:44.415Z,17.44
2018-10-03T16:45:12.894Z,17.32
2018-10-03T16:47:41.414Z,17.09
2018-10-03T16:50:09.875Z,16.85
2018-10-03T16:52:38.382Z,16.54
2018-10-03T16:55:06.934Z,16.27
2018-10-03T16:57:35.436Z,15.98
2018-10-03T17:00:04.038Z,15.73
2018-10-03T17:02:32.973Z,15.48
2018-10-03T17:05:01.513Z,15.25
2018-10-03T17:07:30.117Z,15.06
2018-10-03T17:09:58.792Z,14.87
2018-10-03T17:12:27.586Z,14.72
2018-10-03T17:14:56.114Z,14.61
2018-10-03T17:17:24.707Z,14.52
2018-10-03T17:19:53.169Z,14.38
2018-10-03T17:22:21.674Z,14.27
2018-10-03T17:24:50.146Z,14.13
2018-10-03T17:27:19.025Z,13.98
2018-10-03T17:29:47.560Z,13.86
2018-10-03T17:32:16.494Z,13.71
2018-10-03T17:34:45.012Z,13.58
2018-10-03T17:37:13.635Z,13.47
2018-10-03T17:39:42.083Z,13.43
2018-10-03T17:42:10.713Z,13.42
2018-10-03T17:44:39.210Z,13.33
2018-10-03T17:47:07.914Z,13.22
2018-10-03T17:49:36.339Z,13.14
2018-10-03T17:52:05.175Z,13.08
2018-10-03T17:54:33.667Z,13.01
2018-10-03T17:57:02.174Z,12.95
2018-10-03T17:59:30.631Z,12.89
2018-10-03T18:02:01.856Z,12.82
2018-10-03T18:04:30.534Z,12.80
2018-10-03T18:06:59.329Z,12.72
2018-10-03T18:09:27.954Z,12.69
2018-10-03T18:11:56.630Z,12.62
2018-10-03T18:14:25.116Z,12.55
2018-10-03T18:16:53.582Z,12.47
2018-10-03T18:19:22.075Z,12.48
2018-10-03T18:21:50.573Z,12.52
2018-10-03T18:24:19.705Z,12.48
2018-10-03T18:26:48.264Z,12.50
2018-10-03T18:29:17.118Z,12.52
2018-10-03T18:31:45.618Z,12.41
2018-10-03T18:34:14.396Z,12.27
2018-10-03T18:36:42.846Z,12.19
2018-10-03T18:39:11.673Z,12.10
2018-10-03T18:41:40.394Z,12.03
2018-10-03T18:44:09.211Z,11.98
2018-10-03T18:46:37.713Z,11.89
2018-10-03T18:49:06.436Z,11.82
2018-10-03T18:51:35.137Z,11.78
2018-10-03T18:54:03.920Z,11.71
2018-10-03T18:56:32.449Z,11.71
2018-10-03T18:59:00.991Z,11.70
2018-10-03T19:01:29.497Z,11.82
2018-10-03T19:03:58.069Z,11.96
2018-10-03T19:06:26.603Z,11.93
2018-10-03T19:08:55.073Z,11.89
2018-10-03T19:11:23.568Z,11.81
2018-10-03T19:13:52.059Z,11.70
2018-10-03T19:16:20.802Z,11.64
2018-10-03T19:18:49.318Z,11.62
2018-10-03T19:21:17.961Z,11.60
2018-10-03T19:23:46.483Z,11.57
2018-10-03T19:26:15.005Z,11.54
2018-10-03T19:28:43.450Z,11.51
2018-10-03T19:31:11.893Z,11.45
2018-10-03T19:33:40.410Z,11.39
2018-10-03T19:36:08.879Z,11.33
2018-10-03T19:38:37.389Z,11.29
2018-10-03T19:41:06.087Z,11.21
2018-10-03T19:43:34.786Z,11.14
2018-10-03T19:46:03.314Z,11.11
2018-10-03T19:48:31.866Z,11.15
2018-10-03T19:51:00.487Z,11.04
2018-10-03T19:53:33.336Z,10.99
2018-10-03T19:56:03.058Z,10.90
2018-10-03T19:58:31.823Z,10.81
2018-10-03T20:01:00.507Z,10.72
2018-10-03T20:03:29.145Z,10.69
2018-10-03T20:05:57.689Z,10.65
2018-10-03T20:08:26.221Z,10.59
2018-10-03T20:10:54.769Z,10.56
2018-10-03T20:13:23.282Z,10.55
2018-10-03T20:15:52.324Z,10.51
2018-10-03T20:18:21.642Z,10.48
2018-10-03T20:20:50.342Z,10.53
2018-10-03T20:23:19.424Z,10.50
2018-10-03T20:25:48.609Z,10.42
2018-10-03T20:28:17.326Z,10.38
2018-10-03T20:30:45.838Z,10.35
2018-10-03T20:33:14.313Z,10.35
2018-10-03T20:35:42.770Z,10.38
2018-10-03T20:38:11.513Z,10.34
2018-10-03T20:40:40.031Z,10.29
2018-10-03T20:43:08.550Z,10.29
2018-10-03T20:45:37.000Z,10.29
2018-10-03T20:48:05.545Z,10.25
2018-10-03T20:50:34.109Z,10.25
2018-10-03T20:53:02.589Z,10.15
2018-10-03T20:55:31.049Z,10.13
2018-10-03T20:57:59.589Z,10.10
2018-10-03T21:00:28.285Z,10.01
2018-10-03T21:02:56.783Z,9.96
2018-10-03T21:05:25.427Z,9.94
2018-10-03T21:07:54.135Z,9.98
2018-10-03T21:10:22.662Z,9.96
2018-10-03T21:12:51.133Z,9.89
2018-10-03T21:15:19.969Z,9.85
2018-10-03T21:17:48.559Z,9.88
2018-10-03T21:20:17.151Z,9.87
2018-10-03T21:22:45.801Z,9.92
2018-10-03T21:25:14.294Z,10.02
2018-10-03T21:27:42.784Z,10.01
2018-10-03T21:30:11.344Z,9.96
2018-10-03T21:32:39.798Z,9.94
2018-10-03T21:35:08.490Z,9.97
2018-10-03T21:37:36.957Z,9.94
2018-10-03T21:40:05.647Z,9.87
2018-10-03T21:42:34.127Z,9.82
2018-10-03T21:45:02.623Z,9.75
2018-10-03T21:47:31.085Z,9.74
2018-10-03T21:49:59.721Z,9.73
2018-10-03T21:52:28.304Z,9.67
2018-10-03T21:54:56.926Z,9.57
2018-10-03T21:57:25.418Z,9.51
2018-10-03T21:59:53.916Z,9.45
2018-10-03T22:02:22.422Z,9.42
2018-10-03T22:04:50.883Z,9.40
2018-10-03T22:07:19.523Z,9.36
2018-10-03T22:09:48.033Z,9.30
2018-10-03T22:12:16.747Z,9.23
2018-10-03T22:14:45.226Z,9.20
2018-10-03T22:17:19.081Z,9.18
2018-10-03T22:19:47.911Z,9.12
2018-10-03T22:22:16.600Z,9.07
2018-10-03T22:24:45.077Z,9.11
2018-10-03T22:27:13.589Z,9.08
2018-10-03T22:29:42.054Z,9.01
2018-10-03T22:32:10.793Z,9.03
2018-10-03T22:34:39.582Z,9.00
2018-10-03T22:37:08.494Z,8.95
2018-10-03T22:39:36.993Z,8.96
2018-10-03T22:42:05.780Z,9.00
2018-10-03T22:44:34.294Z,8.98
2018-10-03T22:47:02.845Z,8.90
2018-10-03T22:49:31.366Z,8.93
2018-10-03T22:51:59.977Z,8.89
2018-10-03T22:54:28.665Z,8.90
2018-10-03T22:56:57.182Z,8.85
2018-10-03T22:59:25.929Z,8.84
2018-10-03T23:01:54.490Z,8.86
2018-10-03T23:04:23.070Z,8.84
2018-10-03T23:06:51.653Z,8.82
2018-10-03T23:09:20.299Z,8.86
2018-10-03T23:11:48.993Z,8.80
2018-10-03T23:14:17.727Z,8.78
2018-10-03T23:16:46.277Z,8.75
2018-10-03T23:19:14.887Z,8.68
2018-10-03T23:21:43.601Z,8.65
2018-10-03T23:24:12.129Z,8.71
2018-10-03T23:26:40.608Z,8.74
2018-10-03T23:29:09.193Z,8.70
2018-10-03T23:31:37.678Z,8.65
2018-10-03T23:34:06.903Z,8.62
2018-10-03T23:36:35.721Z,8.60
2018-10-03T23:39:05.989Z,8.56
2018-10-03T23:41:34.576Z,8.54
2018-10-03T23:44:03.050Z,8.51
2018-10-03T23:46:31.522Z,8.43
2018-10-03T23:49:00.239Z,8.41
2018-10-03T23:51:28.954Z,8.35
2018-10-03T23:53:57.461Z,8.31
2018-10-03T23:56:26.038Z,8.29
2018-10-03T23:58:54.566Z,8.31
